createdAt,value
2023-04-18T00:00:58.918Z,6.50
2023-04-18T00:03:10.496Z,6.80
2023-04-18T00:05:23.784Z,7.40
2023-04-18T00:07:40.260Z,8.20
2023-04-18T00:09:51.419Z,7.60
2023-04-18T00:12:04.885Z,7.70
2023-04-18T00:14:19.759Z,12.60
2023-04-18T00:16:30.882Z,4.60
2023-04-18T00:18:41.936Z,7.30
2023-04-18T00:20:53.223Z,6.30
2023-04-18T00:23:04.928Z,6.30
2023-04-18T00:25:16.496Z,9.10
2023-04-18T00:27:27.830Z,8.30
2023-04-18T00:29:38.649Z,12.00
2023-04-18T00:31:49.618Z,10.80
2023-04-18T00:34:01.204Z,10.00
2023-04-18T00:36:13.538Z,9.50
2023-04-18T00:38:25.868Z,11.00
2023-04-18T00:40:37.540Z,10.70
2023-04-18T00:42:48.660Z,11.30
2023-04-18T00:44:59.296Z,5.20
2023-04-18T00:47:10.127Z,15.30
2023-04-18T00:49:21.033Z,22.70
2023-04-18T00:51:31.887Z,9.60
2023-04-18T00:53:43.295Z,12.60
2023-04-18T00:55:55.142Z,21.80
2023-04-18T00:58:07.264Z,23.10
2023-04-18T01:00:19.499Z,13.30
2023-04-18T01:02:31.137Z,24.90
2023-04-18T01:04:44.507Z,12.70
2023-04-18T01:06:55.306Z,14.80
2023-04-18T01:09:06.846Z,12.30
2023-04-18T01:11:18.257Z,21.00
2023-04-18T01:13:30.837Z,20.30
2023-04-18T01:15:41.802Z,13.00
2023-04-18T01:17:53.003Z,22.00
2023-04-18T01:20:06.420Z,21.40
2023-04-18T01:22:19.661Z,16.10
2023-04-18T01:24:32.579Z,30.10
2023-04-18T01:28:51.978Z,28.60
2023-04-18T01:31:03.075Z,21.60
2023-04-18T01:33:14.238Z,15.40
2023-04-18T01:35:25.255Z,32.50
2023-04-18T01:37:38.835Z,27.30
2023-04-18T01:39:50.807Z,41.10
2023-04-18T01:42:03.479Z,24.10
2023-04-18T01:44:14.995Z,42.30
2023-04-18T01:46:26.204Z,16.50
2023-04-18T01:48:38.463Z,22.60
2023-04-18T01:50:49.926Z,21.60
2023-04-18T01:53:01.474Z,24.90
2023-04-18T01:55:13.790Z,23.70
2023-04-18T01:57:25.051Z,19.30
2023-04-18T01:59:36.377Z,9.90
2023-04-18T02:01:47.167Z,21.60
2023-04-18T02:03:58.240Z,22.90
2023-04-18T02:06:11.006Z,19.60
2023-04-18T02:08:21.974Z,27.00
2023-04-18T02:10:35.427Z,22.70
2023-04-18T02:12:46.303Z,24.70
2023-04-18T02:14:58.103Z,12.40
2023-04-18T02:17:09.639Z,25.90
2023-04-18T02:19:20.438Z,24.30
2023-04-18T02:21:31.671Z,19.90
2023-04-18T02:23:42.838Z,21.60
2023-04-18T02:25:54.117Z,15.20
2023-04-18T02:28:05.139Z,22.00
2023-04-18T02:30:16.981Z,24.90
2023-04-18T02:32:30.106Z,22.80
2023-04-18T02:34:43.573Z,31.60
2023-04-18T02:36:54.769Z,27.70
2023-04-18T02:39:09.169Z,21.20
2023-04-18T02:41:22.238Z,20.20
2023-04-18T02:43:33.558Z,23.40
2023-04-18T02:47:56.968Z,20.30
2023-04-18T02:50:09.390Z,34.10
2023-04-18T02:52:20.450Z,24.10
2023-04-18T02:54:31.409Z,15.40
2023-04-18T02:56:51.518Z,23.20
2023-04-18T02:59:22.143Z,28.50
2023-04-18T03:02:01.241Z,24.00
2023-04-18T03:04:13.800Z,14.50
2023-04-18T03:06:37.304Z,30.50
2023-04-18T03:08:49.613Z,30.90
2023-04-18T03:11:00.241Z,15.00
2023-04-18T03:13:11.102Z,14.60
2023-04-18T03:15:22.153Z,10.00
2023-04-18T03:17:32.498Z,24.50
2023-04-18T03:19:43.190Z,16.10
2023-04-18T03:24:03.222Z,12.70
2023-04-18T03:26:14.437Z,10.70
2023-04-18T03:28:24.773Z,7.70
2023-04-18T03:30:34.503Z,13.10
2023-04-18T03:32:44.722Z,8.40
2023-04-18T03:34:55.852Z,12.20
2023-04-18T03:37:05.978Z,8.80
2023-04-18T03:39:23.270Z,13.10
2023-04-18T03:41:47.135Z,7.50
2023-04-18T03:43:57.203Z,21.00
2023-04-18T03:46:07.937Z,15.80
2023-04-18T03:48:18.768Z,11.60
2023-04-18T03:50:35.812Z,10.50
2023-04-18T03:52:48.799Z,12.90
2023-04-18T03:54:59.697Z,33.70
2023-04-18T03:57:22.278Z,16.60
2023-04-18T03:59:32.904Z,11.80
2023-04-18T04:01:43.287Z,18.00
2023-04-18T04:03:57.356Z,25.60
2023-04-18T04:06:15.000Z,23.00
2023-04-18T04:08:28.255Z,21.80
2023-04-18T04:10:39.558Z,16.00
2023-04-18T04:12:49.408Z,17.60
2023-04-18T04:15:01.417Z,19.20
2023-04-18T04:17:12.256Z,13.40
2023-04-18T04:19:22.081Z,29.70
2023-04-18T04:21:43.212Z,34.20
2023-04-18T04:23:55.115Z,33.50
2023-04-18T04:26:28.805Z,26.60
2023-04-18T04:28:49.816Z,25.40
2023-04-18T04:31:02.852Z,10.90
2023-04-18T04:33:12.765Z,13.20
2023-04-18T04:35:23.026Z,16.00
2023-04-18T04:37:39.432Z,10.60
2023-04-18T04:40:01.241Z,21.60
2023-04-18T04:42:30.643Z,14.70
2023-04-18T04:44:47.250Z,19.80
2023-04-18T04:47:08.281Z,22.10
2023-04-18T04:51:29.459Z,10.70
2023-04-18T04:53:39.732Z,14.30
2023-04-18T04:55:50.388Z,11.60
2023-04-18T04:58:10.862Z,9.20
2023-04-18T05:00:41.593Z,4.80
2023-04-18T05:02:55.366Z,14.70
2023-04-18T05:05:17.945Z,15.20
2023-04-18T05:07:34.042Z,12.20
2023-04-18T05:09:58.345Z,12.90
2023-04-18T05:12:12.673Z,14.20
2023-04-18T05:14:26.651Z,17.30
2023-04-18T05:16:38.096Z,20.60
2023-04-18T05:18:48.376Z,15.90
2023-04-18T05:21:12.064Z,29.00
2023-04-18T05:23:41.859Z,15.20
2023-04-18T05:25:51.811Z,34.20
2023-04-18T05:28:14.594Z,13.40
2023-04-18T05:30:35.444Z,12.30
2023-04-18T05:35:10.632Z,12.70
2023-04-18T05:37:33.587Z,9.90
2023-04-18T05:39:50.410Z,20.50
2023-04-18T05:42:22.117Z,9.60
2023-04-18T05:44:37.471Z,12.30
2023-04-18T05:46:47.375Z,36.60
2023-04-18T05:48:57.715Z,46.60
2023-04-18T05:51:09.479Z,32.40
2023-04-18T05:53:21.959Z,15.40
2023-04-18T05:55:31.740Z,28.40
2023-04-18T05:57:42.701Z,23.50
2023-04-18T05:59:53.783Z,21.40
2023-04-18T06:02:04.371Z,13.30
2023-04-18T06:04:15.059Z,20.20
2023-04-18T06:06:25.375Z,20.90
2023-04-18T06:08:35.188Z,18.50
2023-04-18T06:10:45.054Z,15.90
2023-04-18T06:12:54.874Z,21.50
2023-04-18T06:15:06.161Z,36.40
2023-04-18T06:17:16.833Z,21.00
2023-04-18T06:19:26.863Z,15.60
2023-04-18T06:21:36.834Z,27.80
2023-04-18T06:23:46.473Z,31.80
2023-04-18T06:25:56.434Z,33.30
2023-04-18T06:28:06.275Z,24.10
2023-04-18T06:30:17.487Z,25.30
2023-04-18T06:32:27.288Z,31.80
2023-04-18T06:34:38.656Z,43.10
2023-04-18T06:36:48.656Z,38.20
2023-04-18T06:38:58.454Z,31.20
2023-04-18T06:41:09.081Z,26.20
2023-04-18T06:43:19.041Z,20.10
2023-04-18T06:45:29.274Z,25.30
2023-04-18T06:47:39.910Z,20.70
2023-04-18T06:49:49.769Z,26.30
2023-04-18T06:51:59.415Z,27.80
2023-04-18T06:54:09.283Z,34.90
2023-04-18T06:56:19.229Z,41.10
2023-04-18T06:58:28.857Z,22.30
2023-04-18T07:00:39.036Z,18.90
2023-04-18T07:02:49.890Z,25.30
2023-04-18T07:04:59.709Z,19.80
2023-04-18T07:07:09.560Z,9.20
2023-04-18T07:09:19.706Z,27.60
2023-04-18T07:11:30.183Z,37.30
2023-04-18T07:13:40.272Z,27.60
2023-04-18T07:15:50.807Z,31.80
2023-04-18T07:18:00.671Z,12.50
2023-04-18T07:20:14.229Z,17.40
2023-04-18T07:22:24.211Z,23.00
2023-04-18T07:24:34.487Z,38.20
2023-04-18T07:26:44.350Z,39.70
2023-04-18T07:28:54.135Z,32.50
2023-04-18T07:31:05.016Z,19.30
2023-04-18T07:33:16.098Z,27.90
2023-04-18T07:35:25.814Z,36.50
2023-04-18T07:37:36.062Z,35.20
2023-04-18T07:39:45.982Z,29.00
2023-04-18T07:41:56.311Z,53.30
2023-04-18T07:44:07.139Z,18.70
2023-04-18T07:46:16.993Z,29.80
2023-04-18T07:48:27.314Z,41.80
2023-04-18T07:50:38.122Z,37.80
2023-04-18T07:52:48.980Z,36.20
2023-04-18T07:54:58.773Z,28.20
2023-04-18T07:57:08.741Z,29.40
2023-04-18T07:59:18.632Z,25.50
2023-04-18T08:01:28.357Z,30.90
2023-04-18T08:03:38.708Z,31.20
2023-04-18T08:05:49.543Z,20.90
2023-04-18T08:07:59.392Z,27.00
2023-04-18T08:10:10.489Z,33.30
2023-04-18T08:12:20.148Z,27.30
2023-04-18T08:14:29.701Z,24.80
2023-04-18T08:16:39.706Z,24.50
2023-04-18T08:18:49.551Z,46.60
2023-04-18T08:20:59.604Z,34.90
2023-04-18T08:23:12.102Z,32.80
2023-04-18T08:25:23.563Z,32.20
2023-04-18T08:27:33.991Z,35.60
2023-04-18T08:29:44.483Z,24.20
2023-04-18T08:31:54.627Z,31.70
2023-04-18T08:34:05.190Z,48.90
2023-04-18T08:36:16.888Z,37.00
2023-04-18T08:38:26.480Z,32.80
2023-04-18T08:40:36.463Z,30.30
2023-04-18T08:42:47.652Z,32.20
2023-04-18T08:44:58.579Z,24.20
2023-04-18T08:47:09.857Z,40.40
2023-04-18T08:49:22.078Z,34.80
2023-04-18T09:02:45.860Z,22.70
2023-04-18T09:05:22.796Z,21.90
2023-04-18T09:07:58.249Z,23.10
2023-04-18T09:10:37.688Z,19.30
2023-04-18T09:13:11.147Z,28.30
2023-04-18T09:15:46.708Z,14.40
2023-04-18T09:18:20.337Z,22.30
2023-04-18T09:20:56.147Z,35.20
2023-04-18T09:23:30.189Z,35.40
2023-04-18T09:26:08.740Z,39.10
2023-04-18T09:28:43.550Z,43.00
2023-04-18T09:31:17.220Z,41.10
2023-04-18T09:33:58.130Z,24.40
2023-04-18T09:36:35.607Z,20.90
2023-04-18T09:39:09.159Z,25.80
2023-04-18T09:41:43.181Z,18.60
2023-04-18T09:44:18.810Z,40.20
2023-04-18T09:46:54.426Z,20.90
2023-04-18T09:49:29.044Z,43.70
2023-04-18T09:52:02.683Z,35.70
2023-04-18T09:54:41.860Z,56.80
2023-04-18T09:57:18.454Z,33.30
2023-04-18T09:59:58.650Z,28.80
2023-04-18T10:02:38.294Z,28.60
2023-04-18T10:05:13.852Z,33.00
2023-04-18T10:07:49.588Z,23.60
2023-04-18T10:10:23.713Z,22.50
2023-04-18T10:13:05.079Z,19.60
2023-04-18T10:15:40.372Z,22.70
2023-04-18T10:18:18.388Z,19.20
2023-04-18T10:20:52.828Z,39.30
2023-04-18T10:23:53.641Z,22.30
2023-04-18T10:26:48.201Z,23.10
2023-04-18T10:29:28.612Z,47.10
2023-04-18T10:32:09.558Z,21.40
2023-04-18T10:34:44.605Z,20.60
2023-04-18T10:37:20.047Z,30.40
2023-04-18T10:40:07.966Z,23.50
2023-04-18T10:43:08.121Z,18.80
2023-04-18T10:45:43.748Z,23.00
2023-04-18T10:48:33.760Z,17.00
2023-04-18T10:51:22.004Z,17.00
2023-04-18T10:54:01.663Z,22.40
2023-04-18T10:56:36.911Z,44.70
2023-04-18T10:59:13.881Z,16.70
2023-04-18T11:01:40.561Z,30.40
2023-04-18T11:04:20.503Z,31.30
2023-04-18T11:06:58.763Z,42.70
2023-04-18T11:09:33.011Z,27.70
2023-04-18T11:12:14.569Z,18.20
2023-04-18T11:14:51.172Z,14.40
2023-04-18T11:17:26.762Z,7.80
2023-04-18T11:20:10.278Z,23.50
2023-04-18T11:22:55.109Z,16.10
2023-04-18T11:25:33.016Z,14.00
2023-04-18T11:28:08.123Z,20.30
2023-04-18T11:30:45.925Z,9.50
2023-04-18T11:33:21.201Z,21.50
2023-04-18T11:36:00.411Z,13.60
2023-04-18T11:38:37.673Z,22.90
2023-04-18T11:41:15.372Z,13.90
2023-04-18T11:43:51.962Z,14.40
2023-04-18T11:46:26.927Z,27.40
2023-04-18T11:49:01.949Z,28.30
2023-04-18T11:51:47.304Z,26.70
2023-04-18T11:54:43.329Z,20.30
2023-04-18T11:57:29.314Z,16.90
2023-04-18T12:00:03.941Z,18.40
2023-04-18T12:02:46.757Z,35.30
2023-04-18T12:05:31.278Z,26.60
2023-04-18T12:08:12.492Z,15.20
2023-04-18T12:10:52.062Z,20.40
2023-04-18T12:13:34.561Z,13.10
2023-04-18T12:16:09.852Z,19.90
2023-04-18T12:18:44.959Z,13.90
2023-04-18T12:21:19.731Z,13.00
2023-04-18T12:23:59.714Z,18.90
2023-04-18T12:26:34.226Z,19.60
2023-04-18T12:29:08.011Z,16.00
2023-04-18T12:31:43.293Z,14.70
2023-04-18T12:34:18.348Z,21.40
2023-04-18T12:36:53.443Z,11.50
2023-04-18T12:39:27.158Z,14.20
2023-04-18T12:42:03.509Z,11.00
2023-04-18T12:44:38.245Z,15.50
2023-04-18T12:47:12.065Z,7.60
2023-04-18T12:49:45.965Z,12.80
2023-04-18T12:52:19.237Z,16.60
2023-04-18T12:54:53.856Z,16.70
2023-04-18T12:57:31.659Z,19.00
2023-04-18T13:00:07.760Z,20.50
2023-04-18T13:02:42.558Z,19.10
2023-04-18T13:05:19.768Z,12.90
2023-04-18T13:08:08.511Z,12.40
2023-04-18T13:10:51.284Z,9.00
2023-04-18T13:13:25.262Z,10.10
2023-04-18T13:15:51.712Z,7.30
2023-04-18T13:18:26.891Z,14.40
2023-04-18T13:21:01.105Z,15.30
2023-04-18T13:23:37.650Z,18.60
2023-04-18T13:26:11.596Z,21.00
2023-04-18T13:28:46.564Z,16.10
2023-04-18T13:31:21.674Z,14.00
2023-04-18T13:33:56.988Z,26.40
2023-04-18T13:36:32.751Z,32.80
2023-04-18T13:39:08.078Z,8.80
2023-04-18T13:41:41.864Z,14.70
2023-04-18T13:44:17.763Z,9.90
2023-04-18T13:46:53.139Z,11.90
2023-04-18T13:49:27.551Z,15.40
2023-04-18T13:52:02.243Z,9.80
2023-04-18T13:54:38.141Z,6.20
2023-04-18T13:57:14.658Z,10.10
2023-04-18T13:59:52.666Z,12.80
2023-04-18T14:02:27.338Z,24.00
2023-04-18T14:05:02.200Z,10.00
2023-04-18T14:07:36.276Z,9.20
2023-04-18T14:10:12.352Z,10.30
2023-04-18T14:12:46.918Z,9.00
2023-04-18T14:15:21.244Z,12.60
2023-04-18T14:17:55.484Z,21.00
2023-04-18T14:20:35.482Z,11.20
2023-04-18T14:23:11.465Z,16.90
2023-04-18T14:25:46.349Z,11.90
2023-04-18T14:28:23.162Z,13.30
2023-04-18T14:30:58.908Z,6.60
2023-04-18T14:33:33.252Z,8.70
2023-04-18T14:36:12.360Z,8.30
2023-04-18T14:38:46.112Z,7.60
2023-04-18T14:41:19.887Z,7.90
2023-04-18T14:43:55.172Z,12.10
2023-04-18T14:46:30.415Z,17.60
2023-04-18T14:49:04.220Z,8.80
2023-04-18T14:51:38.282Z,15.60
2023-04-18T14:54:12.478Z,17.70
2023-04-18T14:56:46.924Z,33.30
2023-04-18T14:59:22.660Z,6.90
2023-04-18T15:01:56.324Z,14.10
2023-04-18T15:04:31.911Z,16.50
2023-04-18T15:07:06.549Z,21.10
2023-04-18T15:09:44.472Z,20.90
2023-04-18T15:12:18.127Z,8.10
2023-04-18T15:14:52.828Z,7.70
2023-04-18T15:17:27.082Z,11.60
2023-04-18T15:20:01.637Z,10.60
2023-04-18T15:22:34.992Z,15.80
2023-04-18T15:25:18.407Z,20.40
2023-04-18T15:30:25.804Z,19.40
2023-04-18T15:32:59.968Z,18.80
2023-04-18T15:35:33.823Z,12.10
2023-04-18T15:37:57.795Z,18.90
2023-04-18T15:40:34.295Z,19.30
2023-04-18T15:43:08.460Z,13.40
2023-04-18T15:45:43.621Z,19.50
2023-04-18T15:48:18.312Z,21.90
2023-04-18T15:50:59.713Z,22.40
2023-04-18T15:53:35.012Z,24.00
2023-04-18T15:56:08.953Z,19.10
2023-04-18T15:58:43.019Z,16.70
2023-04-18T16:01:21.707Z,32.90
2023-04-18T16:03:56.761Z,14.40
2023-04-18T16:06:32.573Z,23.00
2023-04-18T16:09:08.394Z,12.50
2023-04-18T16:11:43.233Z,19.30
2023-04-18T16:14:17.920Z,17.10
2023-04-18T16:16:54.840Z,26.00
2023-04-18T16:19:29.895Z,24.20
2023-04-18T16:22:04.163Z,12.00
2023-04-18T16:24:41.544Z,11.60
2023-04-18T16:27:16.178Z,10.20
2023-04-18T16:29:52.438Z,19.60
2023-04-18T16:32:28.630Z,12.90
2023-04-18T16:35:02.300Z,19.50
2023-04-18T16:37:39.341Z,16.50
2023-04-18T16:40:16.428Z,17.70
2023-04-18T16:45:36.327Z,15.00
2023-04-18T16:48:12.556Z,22.90
2023-04-18T16:50:47.749Z,22.50
2023-04-18T16:53:21.568Z,27.20
2023-04-18T16:55:57.075Z,19.20
2023-04-18T16:58:32.119Z,15.90
2023-04-18T17:01:09.193Z,23.90
2023-04-18T17:03:45.021Z,19.40
2023-04-18T17:06:20.914Z,19.60
2023-04-18T17:08:55.635Z,35.40
2023-04-18T17:11:33.210Z,21.30
2023-04-18T17:14:08.882Z,19.50
2023-04-18T17:16:45.540Z,11.00
2023-04-18T17:19:20.344Z,16.60
2023-04-18T17:21:55.873Z,8.80
2023-04-18T17:24:32.288Z,4.90
2023-04-18T17:27:09.931Z,5.00
2023-04-18T17:29:44.912Z,5.70
2023-04-18T17:32:22.450Z,5.40
2023-04-18T17:34:57.283Z,9.40
2023-04-18T17:37:32.434Z,20.00
2023-04-18T17:40:10.867Z,13.00
2023-04-18T17:42:45.519Z,5.60
2023-04-18T17:45:19.247Z,3.60
2023-04-18T17:47:55.890Z,2.40
2023-04-18T17:50:29.463Z,14.50
2023-04-18T17:53:04.090Z,6.10
2023-04-18T17:55:37.766Z,12.90
2023-04-18T17:58:12.623Z,8.00
2023-04-18T18:00:46.856Z,7.40
2023-04-18T18:03:22.692Z,10.80
2023-04-18T18:05:57.799Z,26.90
2023-04-18T18:08:33.470Z,38.80
2023-04-18T18:11:09.411Z,25.60
2023-04-18T18:13:32.860Z,22.40
2023-04-18T18:16:08.385Z,27.60
2023-04-18T18:18:42.668Z,24.40
2023-04-18T18:21:15.781Z,20.20
2023-04-18T18:23:50.131Z,9.10
2023-04-18T18:26:24.801Z,31.80
2023-04-18T18:28:59.300Z,24.80
2023-04-18T18:31:34.433Z,18.90
2023-04-18T18:34:09.367Z,24.60
2023-04-18T18:36:43.232Z,16.60
2023-04-18T18:39:17.468Z,12.70
2023-04-18T18:41:51.990Z,17.10
2023-04-18T18:44:26.194Z,21.60
2023-04-18T18:47:00.730Z,14.00
2023-04-18T18:52:21.726Z,13.50
2023-04-18T18:54:54.950Z,5.40
2023-04-18T18:57:28.760Z,18.80
2023-04-18T19:00:03.173Z,31.70
2023-04-18T19:02:37.034Z,24.40
2023-04-18T19:05:11.838Z,25.90
2023-04-18T19:07:45.718Z,30.10
2023-04-18T19:10:19.263Z,12.50
2023-04-18T19:12:53.970Z,15.70
2023-04-18T19:15:28.003Z,44.10
2023-04-18T19:18:02.652Z,51.70
2023-04-18T19:20:39.867Z,18.90
2023-04-18T19:23:14.164Z,23.50
2023-04-18T19:25:48.587Z,18.70
2023-04-18T19:28:23.720Z,17.30
2023-04-18T19:30:58.451Z,22.60
2023-04-18T19:33:33.661Z,25.50
2023-04-18T19:36:09.240Z,23.50
2023-04-18T19:38:42.851Z,19.80
2023-04-18T19:41:17.315Z,21.70
2023-04-18T19:43:53.362Z,11.80
2023-04-18T19:46:27.473Z,15.70
2023-04-18T19:49:01.822Z,11.80
2023-04-18T19:51:36.957Z,15.10
2023-04-18T19:54:10.932Z,20.60
2023-04-18T19:56:35.606Z,28.90
2023-04-18T19:59:12.907Z,20.20
2023-04-18T20:01:48.720Z,30.20
2023-04-18T20:04:23.313Z,23.20
2023-04-18T20:06:58.678Z,6.60
2023-04-18T20:09:33.240Z,10.30
2023-04-18T20:12:06.376Z,10.80
2023-04-18T20:14:41.032Z,19.60
2023-04-18T20:17:14.329Z,7.90
2023-04-18T20:19:48.239Z,15.20
2023-04-18T20:22:21.827Z,11.80
2023-04-18T20:24:58.189Z,13.00
2023-04-18T20:27:33.973Z,10.00
2023-04-18T20:30:09.610Z,18.70
2023-04-18T20:32:45.313Z,18.20
2023-04-18T20:35:24.341Z,4.90
2023-04-18T20:38:01.360Z,4.90
2023-04-18T20:40:37.140Z,11.20
2023-04-18T20:43:11.362Z,5.00
2023-04-18T20:45:48.325Z,10.50
2023-04-18T20:48:23.137Z,6.50
2023-04-18T20:50:57.068Z,4.10
2023-04-18T20:53:30.976Z,2.20
2023-04-18T20:56:07.470Z,1.60
2023-04-18T20:58:40.498Z,5.10
2023-04-18T21:03:47.348Z,4.00
2023-04-18T21:06:23.218Z,4.00
2023-04-18T21:08:56.772Z,3.50
2023-04-18T21:11:30.541Z,6.00
2023-04-18T21:14:04.907Z,6.60
2023-04-18T21:16:40.478Z,10.30
2023-04-18T21:19:13.977Z,12.40
2023-04-18T21:21:47.350Z,29.90
2023-04-18T21:24:21.088Z,20.10
2023-04-18T21:26:44.246Z,12.30
2023-04-18T21:29:18.749Z,6.40
2023-04-18T21:31:42.825Z,6.60
2023-04-18T21:33:59.493Z,7.40
2023-04-18T21:36:22.429Z,1.60
2023-04-18T21:38:57.593Z,6.90
2023-04-18T21:41:13.730Z,3.00
2023-04-18T21:43:47.300Z,5.90
2023-04-18T21:46:22.051Z,3.80
2023-04-18T21:48:42.466Z,14.50
2023-04-18T21:51:05.795Z,8.70
2023-04-18T21:53:29.238Z,18.70
2023-04-18T21:56:02.909Z,14.10
2023-04-18T21:58:29.697Z,17.40
2023-04-18T22:00:46.218Z,7.40
2023-04-18T22:05:36.248Z,5.50
2023-04-18T22:07:58.055Z,10.50
2023-04-18T22:10:17.764Z,7.50
2023-04-18T22:14:59.929Z,10.00
2023-04-18T22:17:16.017Z,6.50
2023-04-18T22:19:30.704Z,6.40
2023-04-18T22:22:04.805Z,9.60
2023-04-18T22:24:19.483Z,9.40
2023-04-18T22:26:43.019Z,12.70
2023-04-18T22:29:17.357Z,11.60
2023-04-18T22:31:52.014Z,13.70
2023-04-18T22:34:10.768Z,12.90
2023-04-18T22:36:34.140Z,13.20
2023-04-18T22:39:08.581Z,7.70
2023-04-18T22:41:41.471Z,17.60
2023-04-18T22:44:15.587Z,35.90
2023-04-18T22:46:49.235Z,18.40
2023-04-18T22:49:23.284Z,13.10
2023-04-18T22:51:56.984Z,7.80
2023-04-18T22:54:34.518Z,5.20
2023-04-18T22:57:08.270Z,9.50
2023-04-18T22:59:42.248Z,10.20
2023-04-18T23:02:16.353Z,5.50
2023-04-18T23:04:50.695Z,11.90
2023-04-18T23:07:14.336Z,7.10
2023-04-18T23:09:48.612Z,5.00
2023-04-18T23:12:22.472Z,7.10
2023-04-18T23:14:56.442Z,7.30
2023-04-18T23:17:30.434Z,3.80
2023-04-18T23:20:05.745Z,6.70
2023-04-18T23:22:40.884Z,9.50
2023-04-18T23:25:16.098Z,9.40
2023-04-18T23:27:50.152Z,15.80
2023-04-18T23:30:25.417Z,11.80
2023-04-18T23:32:58.726Z,18.60
2023-04-18T23:35:34.530Z,8.40
2023-04-18T23:38:09.275Z,20.70
2023-04-18T23:43:30.616Z,13.40
2023-04-18T23:46:04.654Z,19.60
2023-04-18T23:51:25.759Z,17.60
2023-04-18T23:53:59.725Z,17.20
2023-04-18T23:56:33.850Z,14.60
2023-04-18T23:59:08.730Z,17.50
